sensor_id;sensor_type;location;lat;lon;timestamp;P1;durP1;ratioP1;P2;durP2;ratioP2
7607;SDS011;3845;48.120;11.534;2023-01-20T00:01:23;8.63;;;5.70;;
7607;SDS011;3845;48.120;11.534;2023-01-20T00:03:50;8.57;;;5.97;;
7607;SDS011;3845;48.120;11.534;2023-01-20T00:06:17;7.73;;;5.50;;
7607;SDS011;3845;48.120;11.534;2023-01-20T00:08:42;7.70;;;6.00;;
7607;SDS011;3845;48.120;11.534;2023-01-20T00:11:08;8.07;;;5.63;;
7607;SDS011;3845;48.120;11.534;2023-01-20T00:13:35;7.67;;;5.40;;
7607;SDS011;3845;48.120;11.534;2023-01-20T00:16:04;8.63;;;5.93;;
7607;SDS011;3845;48.120;11.534;2023-01-20T00:18:31;7.07;;;5.40;;
7607;SDS011;3845;48.120;11.534;2023-01-20T00:21:02;8.47;;;5.27;;
7607;SDS011;3845;48.120;11.534;2023-01-20T00:23:29;7.03;;;5.33;;
7607;SDS011;3845;48.120;11.534;2023-01-20T00:25:55;7.47;;;5.40;;
7607;SDS011;3845;48.120;11.534;2023-01-20T00:28:20;7.87;;;5.80;;
7607;SDS011;3845;48.120;11.534;2023-01-20T00:30:45;6.60;;;5.00;;
7607;SDS011;3845;48.120;11.534;2023-01-20T00:33:11;6.87;;;5.37;;
7607;SDS011;3845;48.120;11.534;2023-01-20T00:35:36;7.13;;;5.37;;
7607;SDS011;3845;48.120;11.534;2023-01-20T00:38:02;8.07;;;5.90;;
7607;SDS011;3845;48.120;11.534;2023-01-20T00:40:27;6.23;;;5.20;;
7607;SDS011;3845;48.120;11.534;2023-01-20T00:42:53;7.53;;;5.37;;
7607;SDS011;3845;48.120;11.534;2023-01-20T00:45:18;7.43;;;5.10;;
7607;SDS011;3845;48.120;11.534;2023-01-20T00:47:43;8.40;;;5.03;;
7607;SDS011;3845;48.120;11.534;2023-01-20T00:50:08;6.30;;;4.87;;
7607;SDS011;3845;48.120;11.534;2023-01-20T00:52:34;5.83;;;4.90;;
7607;SDS011;3845;48.120;11.534;2023-01-20T00:54:59;7.33;;;4.93;;
7607;SDS011;3845;48.120;11.534;2023-01-20T00:57:25;6.90;;;4.70;;
7607;SDS011;3845;48.120;11.534;2023-01-20T00:59:50;7.83;;;5.30;;
7607;SDS011;3845;48.120;11.534;2023-01-20T01:02:15;6.30;;;5.03;;
7607;SDS011;3845;48.120;11.534;2023-01-20T01:04:40;6.40;;;4.90;;
7607;SDS011;3845;48.120;11.534;2023-01-20T01:07:06;6.53;;;4.60;;
7607;SDS011;3845;48.120;11.534;2023-01-20T01:09:31;5.70;;;4.80;;
7607;SDS011;3845;48.120;11.534;2023-01-20T01:11:56;6.70;;;4.50;;
7607;SDS011;3845;48.120;11.534;2023-01-20T01:14:22;5.90;;;4.50;;
7607;SDS011;3845;48.120;11.534;2023-01-20T01:16:47;6.03;;;4.57;;
7607;SDS011;3845;48.120;11.534;2023-01-20T01:19:12;5.73;;;4.50;;
7607;SDS011;3845;48.120;11.534;2023-01-20T01:21:37;5.47;;;4.33;;
7607;SDS011;3845;48.120;11.534;2023-01-20T01:24:03;6.03;;;4.80;;
7607;SDS011;3845;48.120;11.534;2023-01-20T01:26:28;6.03;;;4.47;;
7607;SDS011;3845;48.120;11.534;2023-01-20T01:28:54;5.60;;;4.50;;
7607;SDS011;3845;48.120;11.534;2023-01-20T01:31:19;5.53;;;4.40;;
7607;SDS011;3845;48.120;11.534;2023-01-20T01:33:46;6.50;;;4.53;;
7607;SDS011;3845;48.120;11.534;2023-01-20T01:36:12;6.03;;;4.30;;
7607;SDS011;3845;48.120;11.534;2023-01-20T01:38:38;5.57;;;4.67;;
7607;SDS011;3845;48.120;11.534;2023-01-20T01:41:04;6.27;;;4.87;;
7607;SDS011;3845;48.120;11.534;2023-01-20T01:43:31;5.77;;;4.10;;
7607;SDS011;3845;48.120;11.534;2023-01-20T01:45:57;6.17;;;3.90;;
7607;SDS011;3845;48.120;11.534;2023-01-20T01:48:27;6.87;;;4.73;;
7607;SDS011;3845;48.120;11.534;2023-01-20T01:51:04;7.10;;;4.70;;
7607;SDS011;3845;48.120;11.534;2023-01-20T01:53:36;6.00;;;4.50;;
7607;SDS011;3845;48.120;11.534;2023-01-20T01:56:04;4.70;;;4.13;;
7607;SDS011;3845;48.120;11.534;2023-01-20T01:58:31;8.27;;;4.90;;
7607;SDS011;3845;48.120;11.534;2023-01-20T02:00:59;7.10;;;4.60;;
7607;SDS011;3845;48.120;11.534;2023-01-20T02:03:26;6.63;;;4.50;;
7607;SDS011;3845;48.120;11.534;2023-01-20T02:06:21;6.93;;;4.80;;
7607;SDS011;3845;48.120;11.534;2023-01-20T02:08:47;7.03;;;5.20;;
7607;SDS011;3845;48.120;11.534;2023-01-20T02:11:12;9.87;;;6.13;;
7607;SDS011;3845;48.120;11.534;2023-01-20T02:13:38;10.67;;;5.93;;
7607;SDS011;3845;48.120;11.534;2023-01-20T02:16:07;9.77;;;6.10;;
7607;SDS011;3845;48.120;11.534;2023-01-20T02:21:42;9.80;;;5.50;;
7607;SDS011;3845;48.120;11.534;2023-01-20T02:24:24;6.53;;;4.87;;
7607;SDS011;3845;48.120;11.534;2023-01-20T02:27:05;7.20;;;5.07;;
7607;SDS011;3845;48.120;11.534;2023-01-20T02:35:28;6.50;;;4.70;;
7607;SDS011;3845;48.120;11.534;2023-01-20T02:40:48;5.77;;;4.40;;
7607;SDS011;3845;48.120;11.534;2023-01-20T02:46:04;6.07;;;4.90;;
7607;SDS011;3845;48.120;11.534;2023-01-20T02:48:35;6.33;;;4.60;;
7607;SDS011;3845;48.120;11.534;2023-01-20T02:51:12;7.10;;;4.10;;
7607;SDS011;3845;48.120;11.534;2023-01-20T02:53:45;5.37;;;4.00;;
7607;SDS011;3845;48.120;11.534;2023-01-20T02:56:12;5.90;;;4.43;;
7607;SDS011;3845;48.120;11.534;2023-01-20T02:58:46;6.93;;;5.10;;
7607;SDS011;3845;48.120;11.534;2023-01-20T03:01:22;5.70;;;4.47;;
7607;SDS011;3845;48.120;11.534;2023-01-20T03:03:49;6.43;;;4.60;;
7607;SDS011;3845;48.120;11.534;2023-01-20T03:06:18;6.50;;;3.80;;
7607;SDS011;3845;48.120;11.534;2023-01-20T03:08:46;6.97;;;4.10;;
7607;SDS011;3845;48.120;11.534;2023-01-20T03:11:12;5.43;;;4.20;;
7607;SDS011;3845;48.120;11.534;2023-01-20T03:13:40;5.53;;;3.87;;
7607;SDS011;3845;48.120;11.534;2023-01-20T03:16:10;4.60;;;3.93;;
7607;SDS011;3845;48.120;11.534;2023-01-20T03:18:38;5.00;;;3.87;;
7607;SDS011;3845;48.120;11.534;2023-01-20T03:21:04;6.00;;;4.00;;
7607;SDS011;3845;48.120;11.534;2023-01-20T03:23:33;4.30;;;3.87;;
7607;SDS011;3845;48.120;11.534;2023-01-20T03:26:03;5.83;;;4.10;;
7607;SDS011;3845;48.120;11.534;2023-01-20T03:28:32;5.10;;;4.00;;
7607;SDS011;3845;48.120;11.534;2023-01-20T03:30:58;5.40;;;4.30;;
7607;SDS011;3845;48.120;11.534;2023-01-20T03:33:25;4.70;;;3.90;;
7607;SDS011;3845;48.120;11.534;2023-01-20T03:35:51;5.70;;;3.43;;
7607;SDS011;3845;48.120;11.534;2023-01-20T03:38:16;5.17;;;4.27;;
7607;SDS011;3845;48.120;11.534;2023-01-20T03:40:46;4.57;;;3.77;;
7607;SDS011;3845;48.120;11.534;2023-01-20T03:43:22;6.60;;;3.60;;
7607;SDS011;3845;48.120;11.534;2023-01-20T03:49:01;6.17;;;4.20;;
7607;SDS011;3845;48.120;11.534;2023-01-20T03:51:50;5.13;;;4.00;;
7607;SDS011;3845;48.120;11.534;2023-01-20T03:54:22;4.70;;;3.67;;
7607;SDS011;3845;48.120;11.534;2023-01-20T03:57:08;4.83;;;3.73;;
7607;SDS011;3845;48.120;11.534;2023-01-20T03:59:37;4.60;;;3.77;;
7607;SDS011;3845;48.120;11.534;2023-01-20T04:02:04;4.70;;;4.00;;
7607;SDS011;3845;48.120;11.534;2023-01-20T04:04:31;4.93;;;3.60;;
7607;SDS011;3845;48.120;11.534;2023-01-20T04:06:58;4.47;;;3.67;;
7607;SDS011;3845;48.120;11.534;2023-01-20T04:09:25;5.33;;;4.00;;
7607;SDS011;3845;48.120;11.534;2023-01-20T04:11:53;6.33;;;4.60;;
7607;SDS011;3845;48.120;11.534;2023-01-20T04:14:19;6.73;;;5.73;;
7607;SDS011;3845;48.120;11.534;2023-01-20T04:16:50;6.67;;;4.70;;
7607;SDS011;3845;48.120;11.534;2023-01-20T04:19:17;7.87;;;5.37;;
7607;SDS011;3845;48.120;11.534;2023-01-20T04:21:44;6.83;;;5.10;;
7607;SDS011;3845;48.120;11.534;2023-01-20T04:24:22;7.30;;;5.13;;
7607;SDS011;3845;48.120;11.534;2023-01-20T04:26:50;6.07;;;4.90;;
7607;SDS011;3845;48.120;11.534;2023-01-20T04:29:15;6.13;;;4.30;;
7607;SDS011;3845;48.120;11.534;2023-01-20T04:31:41;6.47;;;4.30;;
7607;SDS011;3845;48.120;11.534;2023-01-20T04:34:06;9.13;;;5.60;;
7607;SDS011;3845;48.120;11.534;2023-01-20T04:36:32;6.13;;;4.90;;
7607;SDS011;3845;48.120;11.534;2023-01-20T04:38:57;4.97;;;4.30;;
7607;SDS011;3845;48.120;11.534;2023-01-20T04:41:22;5.37;;;4.40;;
7607;SDS011;3845;48.120;11.534;2023-01-20T04:43:48;5.03;;;4.27;;
7607;SDS011;3845;48.120;11.534;2023-01-20T04:46:13;6.97;;;5.23;;
7607;SDS011;3845;48.120;11.534;2023-01-20T04:48:39;6.23;;;5.13;;
7607;SDS011;3845;48.120;11.534;2023-01-20T04:51:05;6.83;;;5.10;;
7607;SDS011;3845;48.120;11.534;2023-01-20T04:53:31;7.83;;;5.50;;
7607;SDS011;3845;48.120;11.534;2023-01-20T04:55:56;7.70;;;5.97;;
7607;SDS011;3845;48.120;11.534;2023-01-20T04:58:21;6.67;;;5.27;;
7607;SDS011;3845;48.120;11.534;2023-01-20T05:00:47;6.40;;;5.10;;
7607;SDS011;3845;48.120;11.534;2023-01-20T05:03:12;6.83;;;5.17;;
7607;SDS011;3845;48.120;11.534;2023-01-20T05:05:37;5.50;;;4.90;;
7607;SDS011;3845;48.120;11.534;2023-01-20T05:08:03;5.33;;;4.60;;
7607;SDS011;3845;48.120;11.534;2023-01-20T05:10:29;6.30;;;5.10;;
7607;SDS011;3845;48.120;11.534;2023-01-20T05:12:56;6.93;;;5.30;;
7607;SDS011;3845;48.120;11.534;2023-01-20T05:15:21;6.87;;;5.37;;
7607;SDS011;3845;48.120;11.534;2023-01-20T05:17:47;6.40;;;5.10;;
7607;SDS011;3845;48.120;11.534;2023-01-20T05:20:12;6.40;;;5.03;;
7607;SDS011;3845;48.120;11.534;2023-01-20T05:22:38;10.93;;;7.50;;
7607;SDS011;3845;48.120;11.534;2023-01-20T05:25:04;8.47;;;7.33;;
7607;SDS011;3845;48.120;11.534;2023-01-20T05:27:29;8.50;;;6.73;;
7607;SDS011;3845;48.120;11.534;2023-01-20T05:29:55;7.90;;;6.57;;
7607;SDS011;3845;48.120;11.534;2023-01-20T05:32:20;8.37;;;6.30;;
7607;SDS011;3845;48.120;11.534;2023-01-20T05:34:45;7.40;;;6.60;;
7607;SDS011;3845;48.120;11.534;2023-01-20T05:37:11;8.03;;;6.90;;
7607;SDS011;3845;48.120;11.534;2023-01-20T05:39:36;7.70;;;6.53;;
7607;SDS011;3845;48.120;11.534;2023-01-20T05:42:01;8.93;;;7.57;;
7607;SDS011;3845;48.120;11.534;2023-01-20T05:44:27;9.13;;;7.47;;
7607;SDS011;3845;48.120;11.534;2023-01-20T05:46:52;9.47;;;7.00;;
7607;SDS011;3845;48.120;11.534;2023-01-20T05:49:17;9.73;;;7.20;;
7607;SDS011;3845;48.120;11.534;2023-01-20T05:51:42;9.23;;;7.77;;
7607;SDS011;3845;48.120;11.534;2023-01-20T05:54:08;8.83;;;7.20;;
7607;SDS011;3845;48.120;11.534;2023-01-20T05:56:33;11.23;;;9.10;;
7607;SDS011;3845;48.120;11.534;2023-01-20T05:58:59;9.47;;;7.47;;
7607;SDS011;3845;48.120;11.534;2023-01-20T06:01:24;9.13;;;7.37;;
7607;SDS011;3845;48.120;11.534;2023-01-20T06:03:49;9.17;;;7.30;;
7607;SDS011;3845;48.120;11.534;2023-01-20T06:06:14;10.20;;;8.87;;
7607;SDS011;3845;48.120;11.534;2023-01-20T06:08:42;10.77;;;8.33;;
7607;SDS011;3845;48.120;11.534;2023-01-20T06:11:08;9.80;;;7.37;;
7607;SDS011;3845;48.120;11.534;2023-01-20T06:13:33;8.20;;;6.63;;
7607;SDS011;3845;48.120;11.534;2023-01-20T06:16:03;10.30;;;7.60;;
7607;SDS011;3845;48.120;11.534;2023-01-20T06:18:29;9.37;;;7.90;;
7607;SDS011;3845;48.120;11.534;2023-01-20T06:20:55;8.13;;;6.57;;
7607;SDS011;3845;48.120;11.534;2023-01-20T06:23:22;7.80;;;6.10;;
7607;SDS011;3845;48.120;11.534;2023-01-20T06:25:47;6.73;;;5.20;;
7607;SDS011;3845;48.120;11.534;2023-01-20T06:28:12;7.37;;;5.80;;
7607;SDS011;3845;48.120;11.534;2023-01-20T06:30:37;8.17;;;6.90;;
7607;SDS011;3845;48.120;11.534;2023-01-20T06:33:06;8.57;;;6.53;;
7607;SDS011;3845;48.120;11.534;2023-01-20T06:35:34;8.07;;;6.23;;
7607;SDS011;3845;48.120;11.534;2023-01-20T06:38:00;7.10;;;5.80;;
7607;SDS011;3845;48.120;11.534;2023-01-20T06:40:25;7.17;;;5.90;;
7607;SDS011;3845;48.120;11.534;2023-01-20T06:42:51;6.43;;;5.37;;
7607;SDS011;3845;48.120;11.534;2023-01-20T06:45:16;6.90;;;6.20;;
7607;SDS011;3845;48.120;11.534;2023-01-20T06:47:41;7.60;;;5.50;;
7607;SDS011;3845;48.120;11.534;2023-01-20T06:50:07;6.73;;;5.13;;
7607;SDS011;3845;48.120;11.534;2023-01-20T06:52:32;9.57;;;6.40;;
7607;SDS011;3845;48.120;11.534;2023-01-20T06:54:58;8.57;;;6.10;;
7607;SDS011;3845;48.120;11.534;2023-01-20T06:57:23;7.37;;;6.00;;
7607;SDS011;3845;48.120;11.534;2023-01-20T06:59:48;7.30;;;5.63;;
7607;SDS011;3845;48.120;11.534;2023-01-20T07:02:13;7.63;;;6.20;;
7607;SDS011;3845;48.120;11.534;2023-01-20T07:04:39;8.53;;;6.80;;
7607;SDS011;3845;48.120;11.534;2023-01-20T07:07:04;8.93;;;6.70;;
7607;SDS011;3845;48.120;11.534;2023-01-20T07:09:29;8.13;;;5.60;;
7607;SDS011;3845;48.120;11.534;2023-01-20T07:11:54;8.07;;;6.00;;
7607;SDS011;3845;48.120;11.534;2023-01-20T07:14:20;8.33;;;6.87;;
7607;SDS011;3845;48.120;11.534;2023-01-20T07:16:45;7.73;;;6.23;;
7607;SDS011;3845;48.120;11.534;2023-01-20T07:19:11;7.20;;;6.10;;
7607;SDS011;3845;48.120;11.534;2023-01-20T07:21:36;9.47;;;6.17;;
7607;SDS011;3845;48.120;11.534;2023-01-20T07:24:02;10.13;;;7.20;;
7607;SDS011;3845;48.120;11.534;2023-01-20T07:26:27;11.73;;;9.23;;
7607;SDS011;3845;48.120;11.534;2023-01-20T07:28:53;9.83;;;8.30;;
7607;SDS011;3845;48.120;11.534;2023-01-20T07:31:22;9.80;;;7.60;;
7607;SDS011;3845;48.120;11.534;2023-01-20T07:33:48;7.97;;;6.63;;
7607;SDS011;3845;48.120;11.534;2023-01-20T07:36:15;9.40;;;7.77;;
7607;SDS011;3845;48.120;11.534;2023-01-20T07:38:40;9.93;;;7.93;;
7607;SDS011;3845;48.120;11.534;2023-01-20T07:41:07;9.20;;;7.50;;
7607;SDS011;3845;48.120;11.534;2023-01-20T07:43:40;10.13;;;7.70;;
7607;SDS011;3845;48.120;11.534;2023-01-20T07:46:06;11.03;;;8.77;;
7607;SDS011;3845;48.120;11.534;2023-01-20T07:48:32;13.07;;;9.17;;
7607;SDS011;3845;48.120;11.534;2023-01-20T07:50:58;11.20;;;9.33;;
7607;SDS011;3845;48.120;11.534;2023-01-20T07:53:30;11.30;;;8.27;;
7607;SDS011;3845;48.120;11.534;2023-01-20T07:55:58;10.80;;;8.63;;
7607;SDS011;3845;48.120;11.534;2023-01-20T07:58:24;12.03;;;8.93;;
7607;SDS011;3845;48.120;11.534;2023-01-20T08:00:50;10.53;;;8.10;;
7607;SDS011;3845;48.120;11.534;2023-01-20T08:03:15;11.73;;;7.70;;
7607;SDS011;3845;48.120;11.534;2023-01-20T08:05:40;10.13;;;7.03;;
7607;SDS011;3845;48.120;11.534;2023-01-20T08:08:06;10.07;;;7.60;;
7607;SDS011;3845;48.120;11.534;2023-01-20T08:10:31;11.80;;;8.50;;
7607;SDS011;3845;48.120;11.534;2023-01-20T08:12:56;9.40;;;7.40;;
7607;SDS011;3845;48.120;11.534;2023-01-20T08:15:22;8.50;;;7.13;;
7607;SDS011;3845;48.120;11.534;2023-01-20T08:17:51;10.97;;;8.13;;
7607;SDS011;3845;48.120;11.534;2023-01-20T08:20:17;8.50;;;6.93;;
7607;SDS011;3845;48.120;11.534;2023-01-20T08:22:42;10.00;;;7.30;;
7607;SDS011;3845;48.120;11.534;2023-01-20T08:25:08;8.67;;;6.93;;
7607;SDS011;3845;48.120;11.534;2023-01-20T08:27:33;10.33;;;8.63;;
7607;SDS011;3845;48.120;11.534;2023-01-20T08:29:58;9.50;;;7.50;;
7607;SDS011;3845;48.120;11.534;2023-01-20T08:32:24;8.07;;;6.80;;
7607;SDS011;3845;48.120;11.534;2023-01-20T08:34:49;9.90;;;7.20;;
7607;SDS011;3845;48.120;11.534;2023-01-20T08:37:14;9.90;;;7.83;;
7607;SDS011;3845;48.120;11.534;2023-01-20T08:39:39;9.70;;;7.40;;
7607;SDS011;3845;48.120;11.534;2023-01-20T08:42:05;8.77;;;7.43;;
7607;SDS011;3845;48.120;11.534;2023-01-20T08:44:30;9.80;;;7.30;;
7607;SDS011;3845;48.120;11.534;2023-01-20T08:46:55;9.00;;;7.37;;
7607;SDS011;3845;48.120;11.534;2023-01-20T08:49:23;13.17;;;9.90;;
7607;SDS011;3845;48.120;11.534;2023-01-20T08:51:48;13.70;;;10.30;;
7607;SDS011;3845;48.120;11.534;2023-01-20T08:54:13;11.27;;;8.90;;
7607;SDS011;3845;48.120;11.534;2023-01-20T08:56:39;9.93;;;8.20;;
7607;SDS011;3845;48.120;11.534;2023-01-20T08:59:04;11.40;;;9.20;;
7607;SDS011;3845;48.120;11.534;2023-01-20T09:01:31;10.77;;;8.63;;
7607;SDS011;3845;48.120;11.534;2023-01-20T09:03:59;11.10;;;9.50;;
7607;SDS011;3845;48.120;11.534;2023-01-20T09:06:25;9.20;;;7.90;;
7607;SDS011;3845;48.120;11.534;2023-01-20T09:08:51;9.03;;;7.80;;
7607;SDS011;3845;48.120;11.534;2023-01-20T09:11:18;9.17;;;7.33;;
7607;SDS011;3845;48.120;11.534;2023-01-20T09:13:45;8.97;;;6.93;;
7607;SDS011;3845;48.120;11.534;2023-01-20T09:16:12;9.10;;;6.97;;
7607;SDS011;3845;48.120;11.534;2023-01-20T09:18:41;11.70;;;8.37;;
7607;SDS011;3845;48.120;11.534;2023-01-20T09:21:07;14.97;;;11.37;;
7607;SDS011;3845;48.120;11.534;2023-01-20T09:23:33;10.43;;;8.70;;
7607;SDS011;3845;48.120;11.534;2023-01-20T09:25:59;9.77;;;7.83;;
7607;SDS011;3845;48.120;11.534;2023-01-20T09:28:24;8.00;;;6.93;;
7607;SDS011;3845;48.120;11.534;2023-01-20T09:30:55;10.30;;;8.57;;
7607;SDS011;3845;48.120;11.534;2023-01-20T09:33:23;9.80;;;7.73;;
7607;SDS011;3845;48.120;11.534;2023-01-20T09:35:55;8.03;;;6.97;;
7607;SDS011;3845;48.120;11.534;2023-01-20T09:38:21;10.00;;;7.93;;
7607;SDS011;3845;48.120;11.534;2023-01-20T09:52:46;9.63;;;6.40;;
7607;SDS011;3845;48.120;11.534;2023-01-20T10:00:51;8.50;;;6.53;;
7607;SDS011;3845;48.120;11.534;2023-01-20T10:03:31;8.30;;;6.27;;
7607;SDS011;3845;48.120;11.534;2023-01-20T10:06:01;7.57;;;5.97;;
7607;SDS011;3845;48.120;11.534;2023-01-20T10:08:32;7.00;;;5.80;;
7607;SDS011;3845;48.120;11.534;2023-01-20T10:11:07;6.83;;;5.83;;
7607;SDS011;3845;48.120;11.534;2023-01-20T10:13:45;7.40;;;5.63;;
7607;SDS011;3845;48.120;11.534;2023-01-20T10:16:29;7.43;;;5.50;;
7607;SDS011;3845;48.120;11.534;2023-01-20T10:19:01;6.90;;;5.30;;
7607;SDS011;3845;48.120;11.534;2023-01-20T10:21:37;6.13;;;4.83;;
7607;SDS011;3845;48.120;11.534;2023-01-20T10:24:08;5.40;;;4.63;;
7607;SDS011;3845;48.120;11.534;2023-01-20T10:26:41;4.40;;;3.87;;
7607;SDS011;3845;48.120;11.534;2023-01-20T10:29:12;4.57;;;4.00;;
7607;SDS011;3845;48.120;11.534;2023-01-20T10:31:43;5.07;;;4.17;;
7607;SDS011;3845;48.120;11.534;2023-01-20T10:34:22;5.07;;;4.13;;
7607;SDS011;3845;48.120;11.534;2023-01-20T10:36:59;6.17;;;4.67;;
7607;SDS011;3845;48.120;11.534;2023-01-20T10:39:31;4.80;;;4.00;;
7607;SDS011;3845;48.120;11.534;2023-01-20T10:42:03;6.10;;;4.10;;
7607;SDS011;3845;48.120;11.534;2023-01-20T10:44:33;4.80;;;3.67;;
7607;SDS011;3845;48.120;11.534;2023-01-20T11:00:52;5.27;;;4.10;;
7607;SDS011;3845;48.120;11.534;2023-01-20T11:03:18;6.00;;;4.40;;
7607;SDS011;3845;48.120;11.534;2023-01-20T11:05:45;10.00;;;7.10;;
7607;SDS011;3845;48.120;11.534;2023-01-20T11:08:16;9.43;;;6.80;;
7607;SDS011;3845;48.120;11.534;2023-01-20T11:10:42;7.17;;;5.63;;
7607;SDS011;3845;48.120;11.534;2023-01-20T11:13:08;6.03;;;4.70;;
7607;SDS011;3845;48.120;11.534;2023-01-20T11:15:36;5.73;;;4.30;;
7607;SDS011;3845;48.120;11.534;2023-01-20T11:20:38;6.00;;;4.40;;
7607;SDS011;3845;48.120;11.534;2023-01-20T11:23:10;5.03;;;3.90;;
7607;SDS011;3845;48.120;11.534;2023-01-20T11:25:52;4.43;;;3.60;;
7607;SDS011;3845;48.120;11.534;2023-01-20T11:28:18;4.70;;;3.50;;
7607;SDS011;3845;48.120;11.534;2023-01-20T11:30:46;5.03;;;3.83;;
7607;SDS011;3845;48.120;11.534;2023-01-20T11:33:16;6.57;;;5.10;;
7607;SDS011;3845;48.120;11.534;2023-01-20T11:36:03;6.03;;;5.10;;
7607;SDS011;3845;48.120;11.534;2023-01-20T11:38:42;6.77;;;5.50;;
7607;SDS011;3845;48.120;11.534;2023-01-20T11:41:22;6.17;;;5.23;;
7607;SDS011;3845;48.120;11.534;2023-01-20T11:43:54;8.63;;;5.57;;
7607;SDS011;3845;48.120;11.534;2023-01-20T11:46:31;5.70;;;5.10;;
7607;SDS011;3845;48.120;11.534;2023-01-20T11:49:17;7.97;;;5.83;;
7607;SDS011;3845;48.120;11.534;2023-01-20T11:51:48;6.60;;;5.20;;
7607;SDS011;3845;48.120;11.534;2023-01-20T11:54:26;14.10;;;10.10;;
7607;SDS011;3845;48.120;11.534;2023-01-20T11:56:59;10.40;;;7.87;;
7607;SDS011;3845;48.120;11.534;2023-01-20T11:59:29;8.40;;;6.60;;
7607;SDS011;3845;48.120;11.534;2023-01-20T12:06:59;12.77;;;9.77;;
7607;SDS011;3845;48.120;11.534;2023-01-20T12:09:28;10.73;;;8.07;;
7607;SDS011;3845;48.120;11.534;2023-01-20T12:15:17;6.63;;;5.80;;
7607;SDS011;3845;48.120;11.534;2023-01-20T12:23:20;9.53;;;7.00;;
7607;SDS011;3845;48.120;11.534;2023-01-20T12:26:01;9.60;;;6.90;;
7607;SDS011;3845;48.120;11.534;2023-01-20T12:28:39;7.90;;;7.07;;
7607;SDS011;3845;48.120;11.534;2023-01-20T12:31:10;7.10;;;6.10;;
7607;SDS011;3845;48.120;11.534;2023-01-20T12:33:36;8.53;;;6.93;;
7607;SDS011;3845;48.120;11.534;2023-01-20T12:38:28;6.90;;;5.83;;
7607;SDS011;3845;48.120;11.534;2023-01-20T12:41:01;9.17;;;7.63;;
7607;SDS011;3845;48.120;11.534;2023-01-20T12:43:32;9.47;;;7.77;;
7607;SDS011;3845;48.120;11.534;2023-01-20T12:46:27;12.97;;;9.73;;
7607;SDS011;3845;48.120;11.534;2023-01-20T12:51:56;9.57;;;7.53;;
7607;SDS011;3845;48.120;11.534;2023-01-20T12:54:39;9.50;;;8.13;;
7607;SDS011;3845;48.120;11.534;2023-01-20T13:00:31;12.67;;;10.90;;
7607;SDS011;3845;48.120;11.534;2023-01-20T13:05:59;11.20;;;9.60;;
7607;SDS011;3845;48.120;11.534;2023-01-20T13:08:35;11.13;;;9.27;;
7607;SDS011;3845;48.120;11.534;2023-01-20T13:16:35;17.83;;;14.30;;
7607;SDS011;3845;48.120;11.534;2023-01-20T13:19:10;13.80;;;11.47;;
7607;SDS011;3845;48.120;11.534;2023-01-20T13:21:38;13.43;;;10.67;;
7607;SDS011;3845;48.120;11.534;2023-01-20T13:24:05;21.13;;;16.10;;
7607;SDS011;3845;48.120;11.534;2023-01-20T13:26:39;16.63;;;13.03;;
7607;SDS011;3845;48.120;11.534;2023-01-20T13:29:12;16.70;;;13.33;;
7607;SDS011;3845;48.120;11.534;2023-01-20T13:31:44;15.23;;;11.03;;
7607;SDS011;3845;48.120;11.534;2023-01-20T13:41:54;12.93;;;10.53;;
7607;SDS011;3845;48.120;11.534;2023-01-20T13:44:32;11.23;;;9.87;;
7607;SDS011;3845;48.120;11.534;2023-01-20T13:47:02;11.00;;;9.13;;
7607;SDS011;3845;48.120;11.534;2023-01-20T13:49:46;11.17;;;9.63;;
7607;SDS011;3845;48.120;11.534;2023-01-20T13:55:26;12.87;;;11.23;;
7607;SDS011;3845;48.120;11.534;2023-01-20T13:57:52;13.20;;;10.27;;
7607;SDS011;3845;48.120;11.534;2023-01-20T14:00:18;11.23;;;9.97;;
7607;SDS011;3845;48.120;11.534;2023-01-20T14:02:44;11.57;;;9.53;;
7607;SDS011;3845;48.120;11.534;2023-01-20T14:05:20;12.83;;;10.57;;
7607;SDS011;3845;48.120;11.534;2023-01-20T14:07:46;13.07;;;10.60;;
7607;SDS011;3845;48.120;11.534;2023-01-20T14:10:11;15.97;;;11.63;;
7607;SDS011;3845;48.120;11.534;2023-01-20T14:12:39;12.40;;;10.70;;
7607;SDS011;3845;48.120;11.534;2023-01-20T14:15:05;18.47;;;14.27;;
7607;SDS011;3845;48.120;11.534;2023-01-20T14:17:31;15.77;;;13.00;;
7607;SDS011;3845;48.120;11.534;2023-01-20T14:19:56;16.10;;;12.17;;
7607;SDS011;3845;48.120;11.534;2023-01-20T14:22:25;13.13;;;10.50;;
7607;SDS011;3845;48.120;11.534;2023-01-20T14:24:54;12.47;;;9.87;;
7607;SDS011;3845;48.120;11.534;2023-01-20T14:27:25;12.03;;;9.53;;
7607;SDS011;3845;48.120;11.534;2023-01-20T14:30:12;11.83;;;10.20;;
7607;SDS011;3845;48.120;11.534;2023-01-20T14:32:40;14.70;;;11.97;;
7607;SDS011;3845;48.120;11.534;2023-01-20T14:35:13;13.73;;;11.67;;
7607;SDS011;3845;48.120;11.534;2023-01-20T14:37:40;11.43;;;9.73;;
7607;SDS011;3845;48.120;11.534;2023-01-20T14:42:34;13.17;;;10.73;;
7607;SDS011;3845;48.120;11.534;2023-01-20T14:45:00;14.47;;;11.20;;
7607;SDS011;3845;48.120;11.534;2023-01-20T14:47:26;11.73;;;10.27;;
7607;SDS011;3845;48.120;11.534;2023-01-20T14:50:01;12.97;;;11.47;;
7607;SDS011;3845;48.120;11.534;2023-01-20T14:52:28;12.60;;;10.93;;
7607;SDS011;3845;48.120;11.534;2023-01-20T15:02:27;16.27;;;12.27;;
7607;SDS011;3845;48.120;11.534;2023-01-20T15:04:54;13.07;;;10.37;;
7607;SDS011;3845;48.120;11.534;2023-01-20T15:07:20;13.53;;;11.07;;
7607;SDS011;3845;48.120;11.534;2023-01-20T15:09:55;12.20;;;10.60;;
7607;SDS011;3845;48.120;11.534;2023-01-20T15:12:29;12.37;;;9.13;;
7607;SDS011;3845;48.120;11.534;2023-01-20T15:15:18;14.27;;;11.20;;
7607;SDS011;3845;48.120;11.534;2023-01-20T15:18:01;13.23;;;11.03;;
7607;SDS011;3845;48.120;11.534;2023-01-20T15:20:47;13.17;;;10.40;;
7607;SDS011;3845;48.120;11.534;2023-01-20T15:23:14;24.77;;;17.57;;
7607;SDS011;3845;48.120;11.534;2023-01-20T15:25:48;24.13;;;18.33;;
7607;SDS011;3845;48.120;11.534;2023-01-20T15:28:27;20.13;;;16.00;;
7607;SDS011;3845;48.120;11.534;2023-01-20T15:30:54;18.27;;;14.57;;
7607;SDS011;3845;48.120;11.534;2023-01-20T15:33:21;16.40;;;12.33;;
7607;SDS011;3845;48.120;11.534;2023-01-20T15:35:55;14.30;;;11.80;;
7607;SDS011;3845;48.120;11.534;2023-01-20T15:38:24;15.70;;;12.67;;
7607;SDS011;3845;48.120;11.534;2023-01-20T15:40:50;18.63;;;13.57;;
7607;SDS011;3845;48.120;11.534;2023-01-20T15:43:16;22.10;;;16.13;;
7607;SDS011;3845;48.120;11.534;2023-01-20T15:45:42;19.27;;;14.83;;
7607;SDS011;3845;48.120;11.534;2023-01-20T15:48:18;18.73;;;13.90;;
7607;SDS011;3845;48.120;11.534;2023-01-20T15:50:45;19.00;;;14.90;;
7607;SDS011;3845;48.120;11.534;2023-01-20T15:53:14;15.93;;;13.57;;
7607;SDS011;3845;48.120;11.534;2023-01-20T15:55:41;19.37;;;14.40;;
7607;SDS011;3845;48.120;11.534;2023-01-20T15:58:16;24.23;;;17.87;;
7607;SDS011;3845;48.120;11.534;2023-01-20T16:00:44;19.77;;;15.67;;
7607;SDS011;3845;48.120;11.534;2023-01-20T16:03:10;16.83;;;13.47;;
7607;SDS011;3845;48.120;11.534;2023-01-20T16:05:36;14.80;;;12.13;;
7607;SDS011;3845;48.120;11.534;2023-01-20T16:08:01;15.03;;;12.23;;
7607;SDS011;3845;48.120;11.534;2023-01-20T16:10:27;16.53;;;12.13;;
7607;SDS011;3845;48.120;11.534;2023-01-20T16:12:52;16.80;;;13.83;;
7607;SDS011;3845;48.120;11.534;2023-01-20T16:15:17;20.13;;;14.13;;
7607;SDS011;3845;48.120;11.534;2023-01-20T16:17:43;15.90;;;13.03;;
7607;SDS011;3845;48.120;11.534;2023-01-20T16:20:16;20.17;;;15.33;;
7607;SDS011;3845;48.120;11.534;2023-01-20T16:22:43;18.27;;;14.00;;
7607;SDS011;3845;48.120;11.534;2023-01-20T16:25:08;17.40;;;12.73;;
7607;SDS011;3845;48.120;11.534;2023-01-20T16:27:33;15.03;;;11.93;;
7607;SDS011;3845;48.120;11.534;2023-01-20T16:29:59;20.03;;;15.47;;
7607;SDS011;3845;48.120;11.534;2023-01-20T16:32:24;16.60;;;12.67;;
7607;SDS011;3845;48.120;11.534;2023-01-20T16:34:50;16.47;;;12.43;;
7607;SDS011;3845;48.120;11.534;2023-01-20T16:37:15;15.73;;;12.37;;
7607;SDS011;3845;48.120;11.534;2023-01-20T16:39:40;17.37;;;12.17;;
7607;SDS011;3845;48.120;11.534;2023-01-20T16:42:07;16.73;;;13.17;;
7607;SDS011;3845;48.120;11.534;2023-01-20T16:44:34;20.17;;;16.33;;
7607;SDS011;3845;48.120;11.534;2023-01-20T16:46:59;22.17;;;16.87;;